Nationale Nord-Est Plateau de Malzéville (54) - H

Date : 03/06/2012
Distance : 4,100 km

Place Nom Licence Catégorie Club Temps min/km CN à J-60 Points Différence Nouveau CN
1 VOGT Christiane 2557 D65 6709AL 1:02:28 15'14 3418 4213 +795 3552
2 ENARD Monique 2664 D60 2101BO 1:08:15 16'38 3035 3856 +821 3452
3 MONTANARI Colette 2533 D60 5703LO 1:09:11 16'52 3496 3804 +308 3629
4 DUBROCA Monique 633 D65 3308AQ 1:09:55 17'03 4230 3764 -466 4380
5 WOEHRLE Gilbert 370 H70 6803AL 1:12:32 17'41 2780 3628 +848 3098
6 AST Norbert 2512 H70 8809LO 1:14:13 18'06 3184 3546 +362 3375
7 LABEUR Roselyne 905 D60 7707IF 1:15:36 18'26 3647 3481 -166 3836
8 ANNE Brigitte 1672 D60 0111RA 1:17:28 18'53 3312 3397 +85 3233
9 CHALOPIN Catherine 3674 D60 2105BO 1:17:42 18'57 3469 3387 -82 3650
10 TESTOUD Philippe 935 H70 7707IF 1:17:58 19'00 3294 3375 +81 3449
11 BELLE Emmanuelle 8258 D40 6205NO 1:19:31 19'23 3034 3309 +275 3144
12 BERGER M-Jose 7182 D60 5703LO 1:19:31 19'23 3632 3309 -323 3740
13 KENANE Abdelkader 1448 H70 5501LO 1:19:37 19'25 4276 3305 -971 4383
14 RIFFARD J-Claude 2445 H70 5702LO 1:19:41 19'26 3267 3302 +35 3338
15 LEMERCIER Jocelyne 2474 D60 5407LO 1:20:54 19'43 3127 3253 +126 3212
16 BOUSSER Marie-Rose 1844 D60 5702LO 1:21:43 19'55 0 3220 2411
17 MOULIERE M-Bernadette 2888 D65 0207PI 1:21:53 19'58 3408 3214 -194 3426
18 SIMONET Jean 930 H70 7707IF 1:21:53 19'58 4103 3214 -889 4345
19 DIEUDONNE Madeleine 1380 D65 7808IF 1:22:07 20'01 3869 3205 -664 3911
20 CREUSAT Fanny 25989 D40 8809LO 1:22:29 20'07 0 3190 2806
21 THIEBAULD Georges 4389 H70 8809LO 1:22:30 20'07 3342 3190 -152 3209
22 BEAUVISAGE Fabienne 13740 D45 7807IF 1:27:57 21'27 2955 2992 +37 3007
23 SIMONET Marie 931 D60 7707IF 1:31:53 22'24 2842 2864 +22 2854
24 DODIN Genevieve 4392 D60 8809LO 1:33:32 22'48 2422 2813 +391 2446
25 DENIS Martine 12377 D65 9307IF 1:36:18 23'29 2677 2733 +56 2781
26 RIFFARD M-Lucie 2446 D70 5702LO 1:37:37 23'48 2961 2696 -265 2791
27 AST Claudine 2511 D65 8809LO 1:42:51 25'05 2444 2559 +115 2296
28 MERIGUET Valérie 16687 D40 7807IF 1:43:03 25'08 3109 2554 -555 3030
29 OUDIN M-Reine 7574 D60 6804AL 1:45:54 25'49 3621 2485 -1136 3559
30 MOUGEL Danielle 7910 D65 8809LO 1:46:23 25'56 2407 2474 +67 2528
31 ABISSE Gisele 701 D65 2508FC 1:47:51 26'18 3456 2440 -1016 3435
32 DESAINTJAN Claude 2547 H70 6804AL 1:50:13 26'52 3274 2388 -886 3382
33 ROLLET Marie-Madeleine 2413 D65 5415LO 1:50:14 26'53 2524 2387 -137 2460
34 JEANPIERRE M-Therese 3302 D65 8809LO 1:50:48 27'01 3066 2375 -691 3106
35 THIEBAULT M-Paule 4490 D60 6804AL 1:58:23 28'52 2337 2223 -114 2332
36 HABERKORN Didier 2716 H70 2105BO 1:59:23 29'07 3699 2204 -1495 3588
37 MONTANARI Rachel 2534 D40 5703LO 2:00:16 29'20 1206 2188 +982 1701
38 FELTGEN Eric 22817 H70 5407LO 2:09:52 31'40 0 2026 1416
39 JOLY Mauricette 310 D50 6803AL 2:17:03 33'25 2456 1920 -536 3161
40 FISCHER M-Dominique 340 D50 6803AL 2:19:16 33'58 2145 1890 -255 1941
41 LUDEWIG-JAMES Carol 15894 D70 5907NO 2:20:30 34'16 2242 1873 -369 2213
42 FEHLEN Jacqueline 20808 D65 5407LO 2:37:35 38'26 0 1670 1516
43 BEGUINOT M-Louise 1444 D65 5501LO 3:14:16 47'22 1588 1355 -233 1474
FINO Béatrice 1674 D40 0111RA pm None 2538 0 2292
DESAINTJAN Alice 2546 D70 6804AL pm None 2304 0 2329
RICHARD Nicole 14245 D60 0207PI pm None 3276 0 3452
GOETTMANN Bernadette 23051 D45 6804AL pm None 1485 0 1350
LAZAROWICZ Rose-Marie 3598 D60 7512IF pm None 2294 0 2294